sensor_id;sensor_type;location;lat;lon;timestamp;temperature;humidity
25906;DHT22;13713;52.552;13.204;2023-08-31T00:00:43;23.50;63.20
25906;DHT22;13713;52.552;13.204;2023-08-31T00:03:10;23.50;63.20
25906;DHT22;13713;52.552;13.204;2023-08-31T00:05:39;23.50;63.20
25906;DHT22;13713;52.552;13.204;2023-08-31T00:08:06;23.50;63.20
25906;DHT22;13713;52.552;13.204;2023-08-31T00:10:32;23.50;63.20
25906;DHT22;13713;52.552;13.204;2023-08-31T00:12:57;23.50;63.20
25906;DHT22;13713;52.552;13.204;2023-08-31T00:15:23;23.50;63.10
25906;DHT22;13713;52.552;13.204;2023-08-31T00:17:49;23.40;63.10
25906;DHT22;13713;52.552;13.204;2023-08-31T00:20:15;23.40;63.10
25906;DHT22;13713;52.552;13.204;2023-08-31T00:22:41;23.50;63.20
25906;DHT22;13713;52.552;13.204;2023-08-31T00:25:07;23.50;63.10
25906;DHT22;13713;52.552;13.204;2023-08-31T00:27:34;23.50;63.20
25906;DHT22;13713;52.552;13.204;2023-08-31T00:29:59;23.50;63.20
25906;DHT22;13713;52.552;13.204;2023-08-31T00:32:25;23.40;63.00
25906;DHT22;13713;52.552;13.204;2023-08-31T00:34:50;23.40;63.10
25906;DHT22;13713;52.552;13.204;2023-08-31T00:37:16;23.40;63.10
25906;DHT22;13713;52.552;13.204;2023-08-31T00:39:42;23.40;63.10
25906;DHT22;13713;52.552;13.204;2023-08-31T00:42:08;23.40;63.10
25906;DHT22;13713;52.552;13.204;2023-08-31T00:44:34;23.40;63.10
25906;DHT22;13713;52.552;13.204;2023-08-31T00:47:00;23.40;63.10
25906;DHT22;13713;52.552;13.204;2023-08-31T00:49:27;23.40;63.00
25906;DHT22;13713;52.552;13.204;2023-08-31T00:51:53;23.40;63.10
25906;DHT22;13713;52.552;13.204;2023-08-31T00:54:19;23.40;63.10
25906;DHT22;13713;52.552;13.204;2023-08-31T00:56:46;23.40;63.10
25906;DHT22;13713;52.552;13.204;2023-08-31T00:59:11;23.40;63.10
25906;DHT22;13713;52.552;13.204;2023-08-31T01:01:45;23.50;63.20
25906;DHT22;13713;52.552;13.204;2023-08-31T01:04:21;23.40;63.10
25906;DHT22;13713;52.552;13.204;2023-08-31T01:14:56;23.40;63.20
25906;DHT22;13713;52.552;13.204;2023-08-31T01:17:24;23.40;63.10
25906;DHT22;13713;52.552;13.204;2023-08-31T01:19:54;23.40;63.10
25906;DHT22;13713;52.552;13.204;2023-08-31T01:24:52;23.40;63.20
25906;DHT22;13713;52.552;13.204;2023-08-31T01:27:18;23.40;63.10
25906;DHT22;13713;52.552;13.204;2023-08-31T01:29:44;23.50;63.20
25906;DHT22;13713;52.552;13.204;2023-08-31T01:32:10;23.40;63.10
25906;DHT22;13713;52.552;13.204;2023-08-31T01:34:37;23.40;63.10
25906;DHT22;13713;52.552;13.204;2023-08-31T01:37:17;23.40;63.10
25906;DHT22;13713;52.552;13.204;2023-08-31T01:39:49;23.40;63.10
25906;DHT22;13713;52.552;13.204;2023-08-31T01:42:16;23.40;63.20
25906;DHT22;13713;52.552;13.204;2023-08-31T01:44:42;23.40;63.10
25906;DHT22;13713;52.552;13.204;2023-08-31T01:47:09;23.40;63.10
25906;DHT22;13713;52.552;13.204;2023-08-31T01:49:36;23.40;63.10
25906;DHT22;13713;52.552;13.204;2023-08-31T01:52:02;23.30;63.10
25906;DHT22;13713;52.552;13.204;2023-08-31T01:54:27;23.30;63.00
25906;DHT22;13713;52.552;13.204;2023-08-31T01:56:54;23.40;63.10
25906;DHT22;13713;52.552;13.204;2023-08-31T01:59:19;23.30;63.10
25906;DHT22;13713;52.552;13.204;2023-08-31T02:01:45;23.30;63.10
25906;DHT22;13713;52.552;13.204;2023-08-31T02:04:11;23.30;63.10
25906;DHT22;13713;52.552;13.204;2023-08-31T02:06:36;23.40;63.20
25906;DHT22;13713;52.552;13.204;2023-08-31T02:09:02;23.40;63.20
25906;DHT22;13713;52.552;13.204;2023-08-31T02:11:27;23.30;63.20
25906;DHT22;13713;52.552;13.204;2023-08-31T02:13:54;23.30;63.10
25906;DHT22;13713;52.552;13.204;2023-08-31T02:16:20;23.40;63.10
25906;DHT22;13713;52.552;13.204;2023-08-31T02:18:46;23.30;63.10
25906;DHT22;13713;52.552;13.204;2023-08-31T02:21:11;23.30;63.10
25906;DHT22;13713;52.552;13.204;2023-08-31T02:23:41;23.30;63.10
25906;DHT22;13713;52.552;13.204;2023-08-31T02:26:06;23.30;63.10
25906;DHT22;13713;52.552;13.204;2023-08-31T02:28:32;23.30;63.10
25906;DHT22;13713;52.552;13.204;2023-08-31T02:31:01;23.30;63.10
25906;DHT22;13713;52.552;13.204;2023-08-31T02:33:29;23.30;63.00
25906;DHT22;13713;52.552;13.204;2023-08-31T02:35:55;23.30;63.00
25906;DHT22;13713;52.552;13.204;2023-08-31T02:38:21;23.30;63.10
25906;DHT22;13713;52.552;13.204;2023-08-31T02:40:47;23.30;63.00
25906;DHT22;13713;52.552;13.204;2023-08-31T02:43:13;23.30;63.10
25906;DHT22;13713;52.552;13.204;2023-08-31T02:45:38;23.30;63.00
25906;DHT22;13713;52.552;13.204;2023-08-31T02:48:04;23.30;63.00
25906;DHT22;13713;52.552;13.204;2023-08-31T02:50:31;23.30;63.10
25906;DHT22;13713;52.552;13.204;2023-08-31T02:52:57;23.30;63.10
25906;DHT22;13713;52.552;13.204;2023-08-31T02:55:22;23.30;63.00
25906;DHT22;13713;52.552;13.204;2023-08-31T02:57:48;23.30;63.00
25906;DHT22;13713;52.552;13.204;2023-08-31T03:00:14;23.30;63.00
25906;DHT22;13713;52.552;13.204;2023-08-31T03:02:40;23.30;63.00
25906;DHT22;13713;52.552;13.204;2023-08-31T03:05:06;23.30;63.00
25906;DHT22;13713;52.552;13.204;2023-08-31T03:07:32;23.30;63.00
25906;DHT22;13713;52.552;13.204;2023-08-31T03:09:57;23.30;63.00
25906;DHT22;13713;52.552;13.204;2023-08-31T03:12:23;23.30;63.00
25906;DHT22;13713;52.552;13.204;2023-08-31T03:14:48;23.30;63.00
25906;DHT22;13713;52.552;13.204;2023-08-31T03:17:14;23.30;63.00
25906;DHT22;13713;52.552;13.204;2023-08-31T03:19:39;23.30;63.00
25906;DHT22;13713;52.552;13.204;2023-08-31T03:22:05;23.30;63.00
25906;DHT22;13713;52.552;13.204;2023-08-31T03:24:31;23.30;63.00
25906;DHT22;13713;52.552;13.204;2023-08-31T03:26:57;23.30;63.00
25906;DHT22;13713;52.552;13.204;2023-08-31T03:29:23;23.30;63.00
25906;DHT22;13713;52.552;13.204;2023-08-31T03:31:50;23.30;63.00
25906;DHT22;13713;52.552;13.204;2023-08-31T03:34:16;23.30;63.00
25906;DHT22;13713;52.552;13.204;2023-08-31T03:36:41;23.30;63.00
25906;DHT22;13713;52.552;13.204;2023-08-31T03:39:07;23.30;63.00
25906;DHT22;13713;52.552;13.204;2023-08-31T03:41:33;23.30;63.00
25906;DHT22;13713;52.552;13.204;2023-08-31T03:44:01;23.30;63.10
25906;DHT22;13713;52.552;13.204;2023-08-31T03:46:26;23.30;63.10
25906;DHT22;13713;52.552;13.204;2023-08-31T03:48:52;23.30;63.10
25906;DHT22;13713;52.552;13.204;2023-08-31T03:51:18;23.30;63.10
25906;DHT22;13713;52.552;13.204;2023-08-31T03:53:44;23.30;63.00
25906;DHT22;13713;52.552;13.204;2023-08-31T03:56:11;23.20;63.00
25906;DHT22;13713;52.552;13.204;2023-08-31T03:58:37;23.30;63.10
25906;DHT22;13713;52.552;13.204;2023-08-31T04:01:02;23.20;63.00
25906;DHT22;13713;52.552;13.204;2023-08-31T04:03:29;23.30;63.20
25906;DHT22;13713;52.552;13.204;2023-08-31T04:05:55;23.30;63.10
25906;DHT22;13713;52.552;13.204;2023-08-31T04:08:20;23.20;63.20
25906;DHT22;13713;52.552;13.204;2023-08-31T04:10:46;23.30;63.30
25906;DHT22;13713;52.552;13.204;2023-08-31T04:13:13;23.30;63.20
25906;DHT22;13713;52.552;13.204;2023-08-31T04:15:38;23.30;63.20
25906;DHT22;13713;52.552;13.204;2023-08-31T04:18:04;23.30;63.20
25906;DHT22;13713;52.552;13.204;2023-08-31T04:20:30;23.30;63.20
25906;DHT22;13713;52.552;13.204;2023-08-31T04:22:56;23.30;63.20
25906;DHT22;13713;52.552;13.204;2023-08-31T04:25:21;23.30;63.20
25906;DHT22;13713;52.552;13.204;2023-08-31T04:27:47;23.30;63.20
25906;DHT22;13713;52.552;13.204;2023-08-31T04:30:14;23.30;63.30
25906;DHT22;13713;52.552;13.204;2023-08-31T04:32:41;23.30;63.30
25906;DHT22;13713;52.552;13.204;2023-08-31T04:35:06;23.30;63.30
25906;DHT22;13713;52.552;13.204;2023-08-31T04:37:32;23.30;63.40
25906;DHT22;13713;52.552;13.204;2023-08-31T04:39:58;23.30;63.40
25906;DHT22;13713;52.552;13.204;2023-08-31T04:42:24;23.30;63.50
25906;DHT22;13713;52.552;13.204;2023-08-31T04:44:49;23.40;63.60
25906;DHT22;13713;52.552;13.204;2023-08-31T04:47:15;23.40;63.60
25906;DHT22;13713;52.552;13.204;2023-08-31T04:49:41;23.40;63.60
25906;DHT22;13713;52.552;13.204;2023-08-31T04:52:06;23.40;63.70
25906;DHT22;13713;52.552;13.204;2023-08-31T04:54:32;23.40;63.80
25906;DHT22;13713;52.552;13.204;2023-08-31T04:56:58;23.40;63.80
25906;DHT22;13713;52.552;13.204;2023-08-31T04:59:23;23.40;63.90
25906;DHT22;13713;52.552;13.204;2023-08-31T05:01:49;23.40;63.90
25906;DHT22;13713;52.552;13.204;2023-08-31T05:04:14;23.40;63.90
25906;DHT22;13713;52.552;13.204;2023-08-31T05:06:40;23.50;64.00
25906;DHT22;13713;52.552;13.204;2023-08-31T05:09:05;23.50;63.90
25906;DHT22;13713;52.552;13.204;2023-08-31T05:11:31;23.50;63.60
25906;DHT22;13713;52.552;13.204;2023-08-31T05:13:57;23.40;63.10
25906;DHT22;13713;52.552;13.204;2023-08-31T05:16:22;23.30;62.90
25906;DHT22;13713;52.552;13.204;2023-08-31T05:18:48;23.30;62.80
25906;DHT22;13713;52.552;13.204;2023-08-31T05:21:14;23.20;62.70
25906;DHT22;13713;52.552;13.204;2023-08-31T05:23:39;23.20;62.60
25906;DHT22;13713;52.552;13.204;2023-08-31T05:26:05;23.10;62.60
25906;DHT22;13713;52.552;13.204;2023-08-31T05:28:31;23.10;62.50
25906;DHT22;13713;52.552;13.204;2023-08-31T05:30:56;23.10;62.50
25906;DHT22;13713;52.552;13.204;2023-08-31T05:33:23;23.00;62.50
25906;DHT22;13713;52.552;13.204;2023-08-31T05:35:51;23.00;62.60
25906;DHT22;13713;52.552;13.204;2023-08-31T05:38:16;22.90;62.50
25906;DHT22;13713;52.552;13.204;2023-08-31T05:40:42;22.90;62.50
25906;DHT22;13713;52.552;13.204;2023-08-31T05:43:11;22.90;62.50
25906;DHT22;13713;52.552;13.204;2023-08-31T05:45:36;22.90;62.60
25906;DHT22;13713;52.552;13.204;2023-08-31T05:48:02;22.80;62.50
25906;DHT22;13713;52.552;13.204;2023-08-31T05:50:28;22.80;62.60
25906;DHT22;13713;52.552;13.204;2023-08-31T05:52:54;22.80;62.60
25906;DHT22;13713;52.552;13.204;2023-08-31T05:55:19;22.70;62.60
25906;DHT22;13713;52.552;13.204;2023-08-31T05:57:45;22.70;62.70
25906;DHT22;13713;52.552;13.204;2023-08-31T06:00:11;22.60;62.70
25906;DHT22;13713;52.552;13.204;2023-08-31T06:02:41;22.60;62.80
25906;DHT22;13713;52.552;13.204;2023-08-31T06:05:07;22.60;62.90
25906;DHT22;13713;52.552;13.204;2023-08-31T06:07:32;22.60;63.50
25906;DHT22;13713;52.552;13.204;2023-08-31T06:09:58;22.60;62.80
25906;DHT22;13713;52.552;13.204;2023-08-31T06:12:24;22.50;62.80
25906;DHT22;13713;52.552;13.204;2023-08-31T06:14:49;22.50;62.80
25906;DHT22;13713;52.552;13.204;2023-08-31T06:17:15;22.50;62.90
25906;DHT22;13713;52.552;13.204;2023-08-31T06:19:41;22.50;62.90
25906;DHT22;13713;52.552;13.204;2023-08-31T06:22:07;22.40;63.00
25906;DHT22;13713;52.552;13.204;2023-08-31T06:24:33;22.40;63.20
25906;DHT22;13713;52.552;13.204;2023-08-31T06:26:59;22.30;63.20
25906;DHT22;13713;52.552;13.204;2023-08-31T06:29:25;22.30;63.40
25906;DHT22;13713;52.552;13.204;2023-08-31T06:31:50;22.30;63.50
25906;DHT22;13713;52.552;13.204;2023-08-31T06:34:16;22.30;63.50
25906;DHT22;13713;52.552;13.204;2023-08-31T06:36:42;22.30;63.60
25906;DHT22;13713;52.552;13.204;2023-08-31T06:39:07;22.30;63.60
25906;DHT22;13713;52.552;13.204;2023-08-31T06:41:33;22.30;63.50
25906;DHT22;13713;52.552;13.204;2023-08-31T06:43:59;22.30;64.30
25906;DHT22;13713;52.552;13.204;2023-08-31T06:46:24;22.30;63.50
25906;DHT22;13713;52.552;13.204;2023-08-31T06:48:50;22.30;63.50
25906;DHT22;13713;52.552;13.204;2023-08-31T06:51:15;22.30;63.60
25906;DHT22;13713;52.552;13.204;2023-08-31T06:53:41;22.30;63.60
25906;DHT22;13713;52.552;13.204;2023-08-31T06:56:07;22.20;63.60
25906;DHT22;13713;52.552;13.204;2023-08-31T06:58:33;22.20;63.60
25906;DHT22;13713;52.552;13.204;2023-08-31T07:00:58;22.20;63.50
25906;DHT22;13713;52.552;13.204;2023-08-31T07:03:24;22.20;63.50
25906;DHT22;13713;52.552;13.204;2023-08-31T07:05:49;22.20;63.50
25906;DHT22;13713;52.552;13.204;2023-08-31T07:08:15;22.20;63.50
25906;DHT22;13713;52.552;13.204;2023-08-31T07:10:40;22.20;64.40
25906;DHT22;13713;52.552;13.204;2023-08-31T07:13:06;22.20;63.60
25906;DHT22;13713;52.552;13.204;2023-08-31T07:15:31;22.20;63.50
25906;DHT22;13713;52.552;13.204;2023-08-31T07:17:57;22.20;63.60
25906;DHT22;13713;52.552;13.204;2023-08-31T07:20:23;22.20;63.50
25906;DHT22;13713;52.552;13.204;2023-08-31T07:22:48;22.10;63.50
25906;DHT22;13713;52.552;13.204;2023-08-31T07:25:14;22.20;63.60
25906;DHT22;13713;52.552;13.204;2023-08-31T07:27:40;22.10;63.60
25906;DHT22;13713;52.552;13.204;2023-08-31T07:30:05;22.10;63.60
25906;DHT22;13713;52.552;13.204;2023-08-31T07:32:31;22.10;63.50
25906;DHT22;13713;52.552;13.204;2023-08-31T07:34:57;22.10;63.60
25906;DHT22;13713;52.552;13.204;2023-08-31T07:37:23;22.10;63.50
25906;DHT22;13713;52.552;13.204;2023-08-31T07:39:48;22.10;63.60
25906;DHT22;13713;52.552;13.204;2023-08-31T07:42:14;22.10;63.70
25906;DHT22;13713;52.552;13.204;2023-08-31T07:44:39;22.10;63.60
25906;DHT22;13713;52.552;13.204;2023-08-31T07:47:07;22.10;63.60
25906;DHT22;13713;52.552;13.204;2023-08-31T07:49:33;22.10;63.60
25906;DHT22;13713;52.552;13.204;2023-08-31T07:51:58;22.10;63.60
25906;DHT22;13713;52.552;13.204;2023-08-31T07:54:24;22.10;63.50
25906;DHT22;13713;52.552;13.204;2023-08-31T07:56:50;22.10;63.50
25906;DHT22;13713;52.552;13.204;2023-08-31T07:59:16;22.10;63.50
25906;DHT22;13713;52.552;13.204;2023-08-31T08:01:42;22.10;63.40
25906;DHT22;13713;52.552;13.204;2023-08-31T08:04:08;22.00;63.20
25906;DHT22;13713;52.552;13.204;2023-08-31T08:06:33;22.10;63.10
25906;DHT22;13713;52.552;13.204;2023-08-31T08:08:59;22.10;63.10
25906;DHT22;13713;52.552;13.204;2023-08-31T08:11:24;22.10;63.00
25906;DHT22;13713;52.552;13.204;2023-08-31T08:13:50;22.10;63.00
25906;DHT22;13713;52.552;13.204;2023-08-31T08:16:15;22.10;62.90
25906;DHT22;13713;52.552;13.204;2023-08-31T08:18:41;22.10;62.90
25906;DHT22;13713;52.552;13.204;2023-08-31T08:21:06;22.00;62.80
25906;DHT22;13713;52.552;13.204;2023-08-31T08:23:32;22.10;62.80
25906;DHT22;13713;52.552;13.204;2023-08-31T08:25:58;22.10;62.70
25906;DHT22;13713;52.552;13.204;2023-08-31T08:28:25;22.10;62.60
25906;DHT22;13713;52.552;13.204;2023-08-31T08:30:50;22.10;62.60
25906;DHT22;13713;52.552;13.204;2023-08-31T08:33:16;22.10;62.60
25906;DHT22;13713;52.552;13.204;2023-08-31T08:35:41;22.10;62.40
25906;DHT22;13713;52.552;13.204;2023-08-31T08:38:07;22.10;62.30
25906;DHT22;13713;52.552;13.204;2023-08-31T08:40:33;22.20;62.30
25906;DHT22;13713;52.552;13.204;2023-08-31T08:43:00;22.20;62.40
25906;DHT22;13713;52.552;13.204;2023-08-31T08:45:25;22.20;62.30
25906;DHT22;13713;52.552;13.204;2023-08-31T08:47:52;22.10;62.10
25906;DHT22;13713;52.552;13.204;2023-08-31T08:50:17;22.20;62.00
25906;DHT22;13713;52.552;13.204;2023-08-31T08:52:43;22.20;62.00
25906;DHT22;13713;52.552;13.204;2023-08-31T08:55:09;22.20;61.90
25906;DHT22;13713;52.552;13.204;2023-08-31T08:57:35;22.20;61.70
25906;DHT22;13713;52.552;13.204;2023-08-31T09:00:01;22.40;61.80
25906;DHT22;13713;52.552;13.204;2023-08-31T09:02:26;22.30;61.60
25906;DHT22;13713;52.552;13.204;2023-08-31T09:04:52;22.30;61.40
25906;DHT22;13713;52.552;13.204;2023-08-31T09:07:22;22.30;61.30
25906;DHT22;13713;52.552;13.204;2023-08-31T09:09:49;22.30;61.40
25906;DHT22;13713;52.552;13.204;2023-08-31T09:12:18;22.30;61.50
25906;DHT22;13713;52.552;13.204;2023-08-31T09:14:56;22.40;61.40
25906;DHT22;13713;52.552;13.204;2023-08-31T09:17:23;22.30;61.30
25906;DHT22;13713;52.552;13.204;2023-08-31T09:19:57;22.30;61.30
25906;DHT22;13713;52.552;13.204;2023-08-31T09:22:23;22.30;61.30
25906;DHT22;13713;52.552;13.204;2023-08-31T09:24:48;22.30;61.30
25906;DHT22;13713;52.552;13.204;2023-08-31T09:27:14;22.40;61.40
25906;DHT22;13713;52.552;13.204;2023-08-31T09:29:44;22.40;61.30
25906;DHT22;13713;52.552;13.204;2023-08-31T09:32:09;22.40;61.30
25906;DHT22;13713;52.552;13.204;2023-08-31T09:34:35;22.40;61.40
25906;DHT22;13713;52.552;13.204;2023-08-31T09:37:05;22.50;61.40
25906;DHT22;13713;52.552;13.204;2023-08-31T09:39:40;22.40;61.40
25906;DHT22;13713;52.552;13.204;2023-08-31T09:42:06;22.50;61.50
25906;DHT22;13713;52.552;13.204;2023-08-31T09:44:32;22.50;61.40
25906;DHT22;13713;52.552;13.204;2023-08-31T09:46:57;22.50;61.40
25906;DHT22;13713;52.552;13.204;2023-08-31T09:49:23;22.50;61.30
25906;DHT22;13713;52.552;13.204;2023-08-31T09:51:50;22.50;61.00
25906;DHT22;13713;52.552;13.204;2023-08-31T09:54:16;22.50;60.90
25906;DHT22;13713;52.552;13.204;2023-08-31T09:56:43;22.50;60.80
25906;DHT22;13713;52.552;13.204;2023-08-31T09:59:12;22.50;60.80
25906;DHT22;13713;52.552;13.204;2023-08-31T10:01:41;22.50;60.60
25906;DHT22;13713;52.552;13.204;2023-08-31T10:04:07;22.50;60.70
25906;DHT22;13713;52.552;13.204;2023-08-31T10:06:34;22.50;60.70
25906;DHT22;13713;52.552;13.204;2023-08-31T10:09:00;22.50;60.60
25906;DHT22;13713;52.552;13.204;2023-08-31T10:11:26;22.50;60.50
25906;DHT22;13713;52.552;13.204;2023-08-31T10:13:52;22.50;60.40
25906;DHT22;13713;52.552;13.204;2023-08-31T10:16:21;22.50;60.20
25906;DHT22;13713;52.552;13.204;2023-08-31T10:18:47;22.50;60.20
25906;DHT22;13713;52.552;13.204;2023-08-31T10:21:16;22.50;60.10
25906;DHT22;13713;52.552;13.204;2023-08-31T10:23:46;22.50;60.00
25906;DHT22;13713;52.552;13.204;2023-08-31T10:26:11;22.50;59.90
25906;DHT22;13713;52.552;13.204;2023-08-31T10:28:40;22.50;60.00
25906;DHT22;13713;52.552;13.204;2023-08-31T10:31:10;22.50;59.90
25906;DHT22;13713;52.552;13.204;2023-08-31T10:36:08;22.50;59.80
25906;DHT22;13713;52.552;13.204;2023-08-31T10:38:34;22.50;59.80
25906;DHT22;13713;52.552;13.204;2023-08-31T10:46:25;22.60;60.00
25906;DHT22;13713;52.552;13.204;2023-08-31T10:48:57;22.60;60.20
25906;DHT22;13713;52.552;13.204;2023-08-31T10:51:32;22.60;60.20
25906;DHT22;13713;52.552;13.204;2023-08-31T10:54:11;22.60;60.30
25906;DHT22;13713;52.552;13.204;2023-08-31T10:59:21;22.60;60.40
25906;DHT22;13713;52.552;13.204;2023-08-31T11:01:53;22.60;60.50
25906;DHT22;13713;52.552;13.204;2023-08-31T11:04:20;22.60;60.60
25906;DHT22;13713;52.552;13.204;2023-08-31T11:06:45;22.60;60.70
25906;DHT22;13713;52.552;13.204;2023-08-31T11:09:20;22.70;60.80
25906;DHT22;13713;52.552;13.204;2023-08-31T11:11:46;22.60;60.80
25906;DHT22;13713;52.552;13.204;2023-08-31T11:14:13;22.60;60.90
25906;DHT22;13713;52.552;13.204;2023-08-31T11:16:38;22.70;61.00
25906;DHT22;13713;52.552;13.204;2023-08-31T11:19:04;22.60;61.00
25906;DHT22;13713;52.552;13.204;2023-08-31T11:21:30;22.60;61.00
25906;DHT22;13713;52.552;13.204;2023-08-31T11:23:57;22.70;61.90
25906;DHT22;13713;52.552;13.204;2023-08-31T11:26:24;22.60;61.00
25906;DHT22;13713;52.552;13.204;2023-08-31T11:28:49;22.60;61.00
25906;DHT22;13713;52.552;13.204;2023-08-31T11:31:22;22.60;61.00
25906;DHT22;13713;52.552;13.204;2023-08-31T11:33:48;22.60;61.10
25906;DHT22;13713;52.552;13.204;2023-08-31T11:36:13;22.60;61.00
25906;DHT22;13713;52.552;13.204;2023-08-31T11:38:43;22.60;61.10
25906;DHT22;13713;52.552;13.204;2023-08-31T11:41:08;22.60;61.10
25906;DHT22;13713;52.552;13.204;2023-08-31T11:43:34;22.60;61.10
25906;DHT22;13713;52.552;13.204;2023-08-31T11:45:59;22.60;61.10
25906;DHT22;13713;52.552;13.204;2023-08-31T11:48:25;22.60;61.20
25906;DHT22;13713;52.552;13.204;2023-08-31T11:50:51;22.60;61.20
25906;DHT22;13713;52.552;13.204;2023-08-31T11:53:18;22.60;61.20
25906;DHT22;13713;52.552;13.204;2023-08-31T11:55:50;22.70;61.30
25906;DHT22;13713;52.552;13.204;2023-08-31T11:58:16;22.70;61.20
25906;DHT22;13713;52.552;13.204;2023-08-31T12:00:45;22.70;61.30
25906;DHT22;13713;52.552;13.204;2023-08-31T12:03:12;22.70;61.40
25906;DHT22;13713;52.552;13.204;2023-08-31T12:05:44;22.70;61.40
25906;DHT22;13713;52.552;13.204;2023-08-31T12:08:10;22.70;61.40
25906;DHT22;13713;52.552;13.204;2023-08-31T12:10:35;22.80;61.50
25906;DHT22;13713;52.552;13.204;2023-08-31T12:13:09;22.70;61.50
25906;DHT22;13713;52.552;13.204;2023-08-31T12:15:34;22.80;61.60
25906;DHT22;13713;52.552;13.204;2023-08-31T12:18:07;22.80;61.60
25906;DHT22;13713;52.552;13.204;2023-08-31T12:20:32;22.80;61.70
25906;DHT22;13713;52.552;13.204;2023-08-31T12:23:04;22.80;61.80
25906;DHT22;13713;52.552;13.204;2023-08-31T12:25:30;22.90;61.80
25906;DHT22;13713;52.552;13.204;2023-08-31T12:27:56;22.90;61.80
25906;DHT22;13713;52.552;13.204;2023-08-31T12:30:22;22.80;61.80
25906;DHT22;13713;52.552;13.204;2023-08-31T12:32:48;22.90;61.80
25906;DHT22;13713;52.552;13.204;2023-08-31T12:35:13;22.90;61.80
25906;DHT22;13713;52.552;13.204;2023-08-31T12:37:39;22.90;61.80
25906;DHT22;13713;52.552;13.204;2023-08-31T12:40:05;22.90;61.80
25906;DHT22;13713;52.552;13.204;2023-08-31T12:42:32;22.90;61.80
25906;DHT22;13713;52.552;13.204;2023-08-31T12:44:57;23.00;61.90
25906;DHT22;13713;52.552;13.204;2023-08-31T12:47:23;23.00;61.80
25906;DHT22;13713;52.552;13.204;2023-08-31T12:49:49;23.00;61.80
25906;DHT22;13713;52.552;13.204;2023-08-31T12:52:15;23.00;61.70
25906;DHT22;13713;52.552;13.204;2023-08-31T12:54:41;23.00;61.60
25906;DHT22;13713;52.552;13.204;2023-08-31T12:57:06;23.00;61.60
25906;DHT22;13713;52.552;13.204;2023-08-31T12:59:32;23.00;61.50
25906;DHT22;13713;52.552;13.204;2023-08-31T13:01:58;23.10;61.60
25906;DHT22;13713;52.552;13.204;2023-08-31T13:04:23;23.10;61.50
25906;DHT22;13713;52.552;13.204;2023-08-31T13:06:49;23.10;61.40
25906;DHT22;13713;52.552;13.204;2023-08-31T13:09:14;23.10;61.30
25906;DHT22;13713;52.552;13.204;2023-08-31T13:11:40;23.10;61.30
25906;DHT22;13713;52.552;13.204;2023-08-31T13:14:06;23.10;61.20
25906;DHT22;13713;52.552;13.204;2023-08-31T13:16:32;23.10;61.20
25906;DHT22;13713;52.552;13.204;2023-08-31T13:18:58;23.20;61.20
25906;DHT22;13713;52.552;13.204;2023-08-31T13:21:24;23.20;61.10
25906;DHT22;13713;52.552;13.204;2023-08-31T13:23:49;23.20;61.10
25906;DHT22;13713;52.552;13.204;2023-08-31T13:26:15;23.20;61.10
25906;DHT22;13713;52.552;13.204;2023-08-31T13:28:40;23.20;61.00
25906;DHT22;13713;52.552;13.204;2023-08-31T13:31:06;23.20;60.70
25906;DHT22;13713;52.552;13.204;2023-08-31T13:33:32;23.20;60.50
25906;DHT22;13713;52.552;13.204;2023-08-31T13:35:58;23.20;61.20
25906;DHT22;13713;52.552;13.204;2023-08-31T13:38:24;23.20;60.10
25906;DHT22;13713;52.552;13.204;2023-08-31T13:40:53;23.20;60.10
25906;DHT22;13713;52.552;13.204;2023-08-31T13:43:19;23.20;59.90
25906;DHT22;13713;52.552;13.204;2023-08-31T13:45:44;23.20;59.80
25906;DHT22;13713;52.552;13.204;2023-08-31T13:48:10;23.20;59.70
25906;DHT22;13713;52.552;13.204;2023-08-31T13:50:35;23.20;59.40
25906;DHT22;13713;52.552;13.204;2023-08-31T13:53:01;23.20;59.30
25906;DHT22;13713;52.552;13.204;2023-08-31T13:55:27;23.20;59.70
25906;DHT22;13713;52.552;13.204;2023-08-31T13:57:52;23.20;58.90
25906;DHT22;13713;52.552;13.204;2023-08-31T14:00:18;23.20;59.00
25906;DHT22;13713;52.552;13.204;2023-08-31T14:02:43;23.20;58.70
25906;DHT22;13713;52.552;13.204;2023-08-31T14:05:09;23.20;58.70
25906;DHT22;13713;52.552;13.204;2023-08-31T14:07:36;23.20;58.70
25906;DHT22;13713;52.552;13.204;2023-08-31T14:10:01;23.20;58.60
25906;DHT22;13713;52.552;13.204;2023-08-31T14:12:30;23.20;58.50
25906;DHT22;13713;52.552;13.204;2023-08-31T14:14:56;23.20;58.50
25906;DHT22;13713;52.552;13.204;2023-08-31T14:17:23;23.20;58.30
25906;DHT22;13713;52.552;13.204;2023-08-31T14:19:48;23.20;58.20
25906;DHT22;13713;52.552;13.204;2023-08-31T14:22:14;23.20;58.20
25906;DHT22;13713;52.552;13.204;2023-08-31T14:24:40;23.20;58.10
25906;DHT22;13713;52.552;13.204;2023-08-31T14:27:06;23.20;58.10
25906;DHT22;13713;52.552;13.204;2023-08-31T14:29:31;23.20;57.80
25906;DHT22;13713;52.552;13.204;2023-08-31T14:31:57;23.20;57.80
25906;DHT22;13713;52.552;13.204;2023-08-31T14:34:23;23.20;57.90
25906;DHT22;13713;52.552;13.204;2023-08-31T14:36:50;23.20;57.90
25906;DHT22;13713;52.552;13.204;2023-08-31T14:39:16;23.20;58.00
25906;DHT22;13713;52.552;13.204;2023-08-31T14:41:41;23.20;58.00
25906;DHT22;13713;52.552;13.204;2023-08-31T14:44:07;23.20;58.00
25906;DHT22;13713;52.552;13.204;2023-08-31T14:46:32;23.30;58.00
25906;DHT22;13713;52.552;13.204;2023-08-31T14:48:58;23.30;58.00
25906;DHT22;13713;52.552;13.204;2023-08-31T14:51:23;23.30;58.00
25906;DHT22;13713;52.552;13.204;2023-08-31T14:53:49;23.30;58.00
25906;DHT22;13713;52.552;13.204;2023-08-31T14:56:14;23.30;58.00
25906;DHT22;13713;52.552;13.204;2023-08-31T14:58:40;23.30;58.00
25906;DHT22;13713;52.552;13.204;2023-08-31T15:01:05;23.30;58.10
25906;DHT22;13713;52.552;13.204;2023-08-31T15:03:31;23.30;58.10
25906;DHT22;13713;52.552;13.204;2023-08-31T15:05:57;23.30;58.10
25906;DHT22;13713;52.552;13.204;2023-08-31T15:08:34;23.30;58.00
25906;DHT22;13713;52.552;13.204;2023-08-31T15:11:01;23.30;58.10
25906;DHT22;13713;52.552;13.204;2023-08-31T15:13:27;23.40;58.80
25906;DHT22;13713;52.552;13.204;2023-08-31T15:15:53;23.40;58.20
25906;DHT22;13713;52.552;13.204;2023-08-31T15:18:18;23.40;58.20
25906;DHT22;13713;52.552;13.204;2023-08-31T15:20:44;23.30;58.20
25906;DHT22;13713;52.552;13.204;2023-08-31T15:23:09;23.40;58.20
25906;DHT22;13713;52.552;13.204;2023-08-31T15:25:35;23.40;58.20
25906;DHT22;13713;52.552;13.204;2023-08-31T15:28:00;23.40;58.20
25906;DHT22;13713;52.552;13.204;2023-08-31T15:30:26;23.40;58.20